Time;durP1;ratioP1;P1;durP2;ratioP2;P2;SDS_P1;SDS_P2;PMS_P1;PMS_P2;Temp;Humidity;BMP_temperature;BMP_pressure;BME280_temperature;BME280_humidity;BME280_pressure;Samples;Min_cycle;Max_cycle;Signal;HPM_P1;HPM_P2
2024/02/19 00:01:45;;;;;;;106.47;70.60;;;11.80;99.90;;;;;;5051093;28;20056;-72
2024/02/19 00:04:49;;;;;;;94.13;64.47;;;;;;;;;;5050284;28;20040;-73
2024/02/19 00:07:53;;;;;;;104.40;63.03;;;11.90;99.90;;;;;;5051416;28;20558;-73
2024/02/19 00:10:57;;;;;;;96.10;64.38;;;11.80;99.90;;;;;;5051025;28;20052;-73
2024/02/19 00:14:01;;;;;;;97.15;64.85;;;11.80;99.90;;;;;;5050361;28;20044;-73
2024/02/19 00:17:05;;;;;;;88.05;62.45;;;12.00;99.90;;;;;;5051290;28;20614;-73
2024/02/19 00:20:09;;;;;;;89.05;63.10;;;12.00;99.90;;;;;;5050912;28;20048;-73
2024/02/19 00:23:13;;;;;;;100.97;66.45;;;12.20;99.90;;;;;;5050377;28;20052;-73
2024/02/19 00:26:18;;;;;;;96.10;66.47;;;12.20;99.90;;;;;;5051145;28;20080;-73
2024/02/19 00:29:22;;;;;;;96.68;64.47;;;12.30;99.90;;;;;;5050104;28;20530;-72
2024/02/19 00:32:26;;;;;;;99.78;66.18;;;12.20;99.90;;;;;;5051168;28;20048;-72
2024/02/19 00:35:31;;;;;;;93.97;62.58;;;12.30;99.90;;;;;;5050865;28;20040;-73
2024/02/19 00:38:35;;;;;;;93.97;66.13;;;12.20;99.90;;;;;;5051023;28;20060;-72
2024/02/19 00:41:40;;;;;;;93.40;66.47;;;12.30;99.90;;;;;;5054618;28;20044;-72
2024/02/19 00:44:45;;;;;;;93.88;64.15;;;;;;;;;;5054940;28;20048;-72
2024/02/19 00:47:49;;;;;;;97.45;66.15;;;12.30;99.90;;;;;;5055252;28;20393;-72
2024/02/19 00:50:53;;;;;;;93.03;64.25;;;;;;;;;;5055091;28;20044;-73
2024/02/19 00:53:57;;;;;;;99.30;66.47;;;10.70;99.90;;;;;;5053779;28;20396;-73
2024/02/19 00:57:01;;;;;;;95.97;64.05;;;;;;;;;;5054798;28;20085;-71
2024/02/19 01:00:06;;;;;;;92.38;63.47;;;12.40;99.90;;;;;;5054403;28;20052;-72
2024/02/19 01:03:11;;;;;;;92.78;63.65;;;11.30;99.90;;;;;;5054494;28;20542;-73
2024/02/19 01:06:15;;;;;;;83.45;60.22;;;;;;;;;;5055105;28;20492;-73
2024/02/19 01:09:20;;;;;;;85.35;59.45;;;;;;;;;;5054650;28;20044;-73
2024/02/19 01:12:24;;;;;;;87.90;59.83;;;;;;;;;;5054512;28;20044;-71
2024/02/19 01:15:28;;;;;;;93.18;60.78;;;12.40;99.90;;;;;;5053355;28;20044;-72
2024/02/19 01:18:33;;;;;;;85.88;60.88;;;;;;;;;;5054373;28;20528;-72
2024/02/19 01:21:37;;;;;;;85.05;57.83;;;11.50;99.90;;;;;;5054220;28;20096;-72
2024/02/19 01:24:41;;;;;;;82.00;58.25;;;;;;;;;;5053439;28;20064;-72
2024/02/19 01:27:45;;;;;;;84.65;58.55;;;12.40;99.90;;;;;;5053848;28;20052;-72
2024/02/19 01:30:50;;;;;;;84.07;59.17;;;12.30;99.90;;;;;;5054346;28;20052;-72
2024/02/19 01:33:54;;;;;;;86.55;59.65;;;12.30;99.90;;;;;;5054052;28;20503;-73
2024/02/19 01:36:58;;;;;;;90.82;61.58;;;12.20;99.90;;;;;;5053910;28;20353;-73
2024/02/19 01:40:09;;;;;;;92.32;60.88;;;12.30;99.90;;;;;;5053912;28;20068;-73
2024/02/19 01:43:13;;;;;;;85.47;60.35;;;12.20;99.90;;;;;;5053929;28;20048;-72
2024/02/19 01:46:19;;;;;;;87.65;61.78;;;12.10;99.90;;;;;;5053766;28;20060;-72
2024/02/19 01:49:24;;;;;;;91.65;60.97;;;12.20;99.90;;;;;;5053764;28;20044;-73
2024/02/19 01:52:30;;;;;;;91.07;60.22;;;;;;;;;;5052736;28;20044;-73
2024/02/19 01:55:37;;;;;;;87.30;59.50;;;12.10;99.90;;;;;;5053721;28;20040;-72
2024/02/19 01:58:41;;;;;;;90.40;59.17;;;;;;;;;;5053298;28;20429;-73
2024/02/19 02:01:46;;;;;;;86.43;60.47;;;;;;;;;;5052476;28;20056;-72
2024/02/19 02:04:50;;;;;;;83.95;60.35;;;;;;;;;;5053173;28;20108;-73
2024/02/19 02:07:55;;;;;;;86.25;58.25;;;;;;;;;;5053464;28;20044;-72
2024/02/19 02:10:59;;;;;;;81.88;57.35;;;12.40;99.90;;;;;;5053514;28;20036;-72
2024/02/19 02:14:03;;;;;;;89.15;59.60;;;12.50;99.90;;;;;;5052591;28;20052;-73
2024/02/19 02:17:08;;;;;;;87.53;60.50;;;10.30;99.90;;;;;;5053335;28;20048;-73
2024/02/19 02:20:12;;;;;;;83.95;57.33;;;12.30;99.90;;;;;;5053475;28;20052;-73
2024/02/19 02:23:16;;;;;;;85.38;59.00;;;12.30;99.90;;;;;;5053118;28;20036;-73
2024/02/19 02:26:20;;;;;;;80.03;56.17;;;;;;;;;;5040724;28;20677;-73
2024/02/19 02:29:24;;;;;;;88.43;60.03;;;12.10;99.90;;;;;;5052887;28;20040;-72
2024/02/19 02:32:28;;;;;;;86.38;59.30;;;12.30;99.90;;;;;;5052773;28;20040;-72
2024/02/19 02:35:32;;;;;;;87.80;60.33;;;12.10;99.90;;;;;;5052807;28;20044;-72
2024/02/19 02:38:36;;;;;;;80.70;55.63;;;12.00;99.90;;;;;;5052650;28;20071;-73
2024/02/19 02:41:40;;;;;;;83.55;57.15;;;12.10;99.90;;;;;;5052616;28;20122;-72
2024/02/19 02:44:44;;;;;;;85.18;56.70;;;11.80;99.90;;;;;;5052510;28;20060;-73
2024/02/19 02:47:48;;;;;;;83.05;57.00;;;11.00;99.90;;;;;;5052643;28;20507;-72
2024/02/19 02:50:52;;;;;;;81.80;57.40;;;10.60;99.90;;;;;;5052290;28;20044;-72
2024/02/19 02:53:56;;;;;;;85.20;56.70;;;11.90;99.90;;;;;;5051368;28;20044;-72
2024/02/19 02:57:00;;;;;;;83.90;59.20;;;12.00;99.90;;;;;;5052321;28;20032;-72
2024/02/19 03:00:05;;;;;;;89.78;59.45;;;11.90;99.90;;;;;;5052013;28;20520;-73
2024/02/19 03:03:09;;;;;;;88.70;57.22;;;12.00;99.90;;;;;;5051999;28;20059;-72
2024/02/19 03:06:14;;;;;;;87.55;59.13;;;11.80;99.90;;;;;;5052108;28;20503;-73
2024/02/19 03:09:17;;;;;;;82.72;55.08;;;11.80;99.90;;;;;;5051338;28;20052;-73
2024/02/19 03:12:22;;;;;;;81.75;55.95;;;11.90;99.90;;;;;;5052310;28;20420;-73
2024/02/19 03:15:26;;;;;;;84.13;55.55;;;11.90;99.90;;;;;;5051090;28;20040;-73
2024/02/19 03:18:32;;;;;;;75.03;52.53;;;11.80;99.90;;;;;;5052094;28;20068;-73
2024/02/19 03:21:36;;;;;;;73.70;51.72;;;11.90;99.90;;;;;;5051659;28;20480;-73
2024/02/19 03:24:40;;;;;;;78.70;51.17;;;12.40;99.90;;;;;;5051684;28;20059;-73
2024/02/19 03:27:45;;;;;;;72.70;51.83;;;;;;;;;;5051948;28;20067;-73
2024/02/19 03:30:49;;;;;;;76.75;51.35;;;;;;;;;;5051704;28;20043;-73
2024/02/19 03:33:53;;;;;;;70.82;48.35;;;;;;;;;;5051763;28;20044;-73
2024/02/19 03:36:57;;;;;;;66.82;47.30;;;10.90;99.90;;;;;;5050671;28;20040;-73
2024/02/19 03:40:02;;;;;;;70.55;46.63;;;10.50;99.90;;;;;;5051796;28;20067;-73
2024/02/19 03:43:06;;;;;;;70.78;43.92;;;11.60;99.90;;;;;;5051571;28;20040;-73
2024/02/19 03:46:11;;;;;;;65.82;43.40;;;12.30;99.90;;;;;;5051423;28;20048;-73
2024/02/19 03:49:15;;;;;;;66.38;43.05;;;12.00;99.90;;;;;;5050668;28;20063;-72
2024/02/19 03:52:19;;;;;;;65.18;45.25;;;11.90;99.90;;;;;;5051134;28;20040;-71
2024/02/19 03:55:23;;;;;;;64.78;42.35;;;12.00;99.90;;;;;;5051525;28;20612;-72
2024/02/19 03:58:27;;;;;;;64.38;43.20;;;11.90;99.90;;;;;;5051249;28;20060;-71
2024/02/19 04:01:31;;;;;;;65.20;42.95;;;11.90;99.90;;;;;;5050521;28;20052;-72
2024/02/19 04:04:35;;;;;;;65.88;44.05;;;12.00;99.90;;;;;;5051036;28;20116;-72
2024/02/19 04:07:39;;;;;;;59.47;40.97;;;11.90;99.90;;;;;;5051187;28;20035;-73
2024/02/19 04:10:43;;;;;;;59.83;40.95;;;11.90;99.90;;;;;;5051480;28;20039;-73
2024/02/19 04:13:46;;;;;;;58.85;40.50;;;11.90;99.90;;;;;;5050720;28;20048;-72
2024/02/19 04:16:50;;;;;;;59.90;40.63;;;9.50;99.90;;;;;;5051301;28;20040;-72
2024/02/19 04:19:56;;;;;;;64.88;41.17;;;11.80;99.90;;;;;;5050977;28;20515;-73
2024/02/19 04:23:01;;;;;;;60.28;41.53;;;;;;;;;;5051158;28;20040;-73
2024/02/19 04:26:04;;;;;;;59.08;38.33;;;9.80;99.90;;;;;;5051137;28;20056;-73
2024/02/19 04:29:11;;;;;;;57.25;37.42;;;11.60;99.90;;;;;;5050933;28;20048;-73
2024/02/19 04:32:15;;;;;;;58.13;39.28;;;;;;;;;;5050944;28;20048;-72
2024/02/19 04:35:20;;;;;;;52.65;38.72;;;;;;;;;;5050900;28;20040;-72
2024/02/19 04:38:24;;;;;;;51.30;37.97;;;;;;;;;;5049993;28;20048;-72
2024/02/19 04:41:28;;;;;;;53.45;38.65;;;12.00;99.90;;;;;;5051166;28;20059;-72
2024/02/19 04:44:32;;;;;;;53.88;37.50;;;;;;;;;;5050147;28;20048;-71
2024/02/19 04:47:36;;;;;;;60.25;38.70;;;10.30;99.90;;;;;;5050869;28;20044;-72
2024/02/19 04:50:40;;;;;;;56.50;38.92;;;12.00;99.90;;;;;;5049790;28;20048;-73
2024/02/19 04:53:44;;;;;;;56.30;37.92;;;12.40;99.90;;;;;;5050754;28;20036;-73
2024/02/19 04:56:48;;;;;;;56.55;40.85;;;12.10;99.90;;;;;;5050991;28;20041;-73
2024/02/19 04:59:53;;;;;;;59.35;39.72;;;;;;;;;;5050704;28;20060;-73
2024/02/19 05:02:57;;;;;;;58.15;39.30;;;;;;;;;;5049915;28;20052;-73
2024/02/19 05:06:01;;;;;;;59.05;38.65;;;12.00;99.90;;;;;;5050004;28;20043;-73
2024/02/19 05:09:05;;;;;;;52.90;38.35;;;9.70;99.90;;;;;;5050039;28;20487;-73
2024/02/19 05:12:09;;;;;;;60.03;38.58;;;;;;;;;;5050580;28;20045;-73
2024/02/19 05:15:13;;;;;;;56.45;38.88;;;;;;;;;;5050685;28;20048;-73
2024/02/19 05:18:17;;;;;;;61.15;39.83;;;;;;;;;;5050729;28;20507;-73
2024/02/19 05:21:22;;;;;;;61.15;39.92;;;12.00;99.90;;;;;;5050443;28;20044;-73
2024/02/19 05:24:26;;;;;;;56.08;37.95;;;11.30;99.90;;;;;;5050828;28;20048;-73
2024/02/19 05:27:30;;;;;;;48.97;35.10;;;;;;;;;;5053331;28;20120;-73
2024/02/19 05:30:34;;;;;;;58.05;39.22;;;11.90;99.90;;;;;;5053687;28;20052;-73
2024/02/19 05:33:38;;;;;;;53.30;36.95;;;;;;;;;;5054110;28;20044;-73
2024/02/19 05:36:43;;;;;;;53.10;37.28;;;;;;;;;;5054343;28;20511;-72
2024/02/19 05:39:47;;;;;;;58.55;38.50;;;;;;;;;;5054003;28;20052;-73
2024/02/19 05:42:51;;;;;;;52.22;36.85;;;;;;;;;;5054224;28;20044;-72
2024/02/19 05:45:55;;;;;;;54.15;37.17;;;;;;;;;;5054266;28;20048;-72
2024/02/19 05:49:00;;;;;;;55.50;35.78;;;;;;;;;;5053555;28;20507;-71
2024/02/19 05:52:05;;;;;;;55.33;36.63;;;;;;;;;;5053648;28;20048;-73
2024/02/19 05:55:09;;;;;;;53.55;36.60;;;;;;;;;;5053776;28;20044;-71
2024/02/19 05:58:13;;;;;;;51.65;36.55;;;;;;;;;;5053528;28;20508;-72
2024/02/19 06:01:18;;;;;;;50.75;35.00;;;;;;;;;;5053273;28;20048;-72
2024/02/19 06:04:22;;;;;;;52.72;36.72;;;;;;;;;;5053580;28;20147;-73
2024/02/19 06:07:26;;;;;;;62.92;38.35;;;;;;;;;;5053975;28;20071;-72
2024/02/19 06:10:31;;;;;;;53.13;38.13;;;;;;;;;;5053173;28;20044;-72
2024/02/19 06:13:35;;;;;;;50.72;36.33;;;;;;;;;;5053413;28;20055;-72
2024/02/19 06:16:39;;;;;;;60.92;38.35;;;;;;;;;;5053649;28;20044;-72
2024/02/19 06:19:44;;;;;;;62.25;37.78;;;;;;;;;;5053261;28;20052;-72
2024/02/19 06:22:48;;;;;;;58.78;37.22;;;;;;;;;;5053274;28;20044;-73
2024/02/19 06:25:53;;;;;;;62.00;38.30;;;;;;;;;;5052942;28;20048;-75
2024/02/19 06:28:57;;;;;;;60.75;38.67;;;11.30;99.90;;;;;;5053590;28;20045;-74
2024/02/19 06:32:01;;;;;;;56.08;37.55;;;;;;;;;;5052547;28;20055;-75
2024/02/19 06:35:06;;;;;;;56.78;37.13;;;;;;;;;;5053334;28;20040;-74
2024/02/19 06:38:10;;;;;;;51.22;37.95;;;;;;;;;;5052082;28;20048;-72
2024/02/19 06:41:14;;;;;;;57.58;39.33;;;;;;;;;;5052387;28;20048;-73
2024/02/19 06:44:19;;;;;;;62.17;40.10;;;;;;;;;;5051094;28;20044;-75
2024/02/19 06:47:23;;;;;;;64.15;42.25;;;;;;;;;;5052534;28;20052;-73
2024/02/19 06:50:27;;;;;;;62.72;40.53;;;;;;;;;;5052974;28;20043;-74
2024/02/19 06:53:32;;;;;;;69.60;40.33;;;;;;;;;;5053795;28;20044;-76
2024/02/19 06:56:37;;;;;;;65.00;41.92;;;;;;;;;;5052350;28;20040;-75
2024/02/19 06:59:41;;;;;;;83.57;42.63;;;;;;;;;;5053109;28;20052;-74
2024/02/19 07:02:46;;;;;;;60.80;39.20;;;;;;;;;;5051795;28;20041;-76
2024/02/19 07:05:50;;;;;;;58.78;36.70;;;;;;;;;;5052858;28;20052;-74
2024/02/19 07:08:54;;;;;;;53.50;35.88;;;;;;;;;;5052421;28;20040;-73
2024/02/19 07:11:59;;;;;;;63.33;36.63;;;;;;;;;;5052395;28;20044;-73
2024/02/19 07:15:03;;;;;;;67.55;37.25;;;;;;;;;;5052097;28;20052;-71
2024/02/19 07:18:07;;;;;;;59.85;37.22;;;;;;;;;;5052015;28;20047;-73
2024/02/19 07:21:11;;;;;;;66.57;39.70;;;;;;;;;;5052107;28;20056;-73
2024/02/19 07:24:16;;;;;;;67.03;37.88;;;;;;;;;;5051017;28;20039;-73
2024/02/19 07:27:21;;;;;;;54.78;37.25;;;;;;;;;;5052003;28;20048;-73
2024/02/19 07:30:26;;;;;;;57.15;36.75;;;;;;;;;;5051939;28;20051;-71
2024/02/19 07:33:30;;;;;;;52.08;35.63;;;;;;;;;;5052097;28;20052;-73
2024/02/19 07:36:34;;;;;;;61.97;35.75;;;;;;;;;;5051743;28;20040;-74
2024/02/19 07:39:41;;;;;;;53.28;37.13;;;;;;;;;;5051428;28;20064;-76
2024/02/19 07:42:45;;;;;;;67.25;34.15;;;;;;;;;;5051702;28;20427;-73
2024/02/19 07:45:50;;;;;;;57.50;34.72;;;;;;;;;;5052472;28;20108;-73
2024/02/19 07:48:54;;;;;;;60.35;35.65;;;;;;;;;;5049879;28;20052;-72
2024/02/19 07:51:58;;;;;;;63.45;34.88;;;;;;;;;;5051362;28;20056;-73
2024/02/19 07:55:02;;;;;;;53.78;34.67;;;;;;;;;;5051218;28;20047;-74
2024/02/19 07:58:08;;;;;;;53.97;36.72;;;;;;;;;;5051762;28;20067;-72
2024/02/19 08:01:12;;;;;;;61.08;36.42;;;;;;;;;;5050571;28;20058;-73
2024/02/19 08:04:18;;;;;;;51.83;36.25;;;;;;;;;;5052567;28;20072;-78
2024/02/19 08:07:22;;;;;;;48.83;32.05;;;;;;;;;;5051045;28;20063;-71
2024/02/19 08:10:26;;;;;;;45.65;31.20;;;;;;;;;;5050438;28;20395;-72
2024/02/19 08:13:30;;;;;;;49.30;32.30;;;;;;;;;;5050968;28;20044;-74
2024/02/19 08:16:35;;;;;;;52.22;32.60;;;;;;;;;;5050525;28;20048;-74
2024/02/19 08:19:40;;;;;;;46.25;32.58;;;;;;;;;;5050975;28;20516;-71
2024/02/19 08:22:44;;;;;;;51.28;32.78;;;;;;;;;;5050891;28;20072;-73
2024/02/19 08:25:48;;;;;;;48.85;34.13;;;;;;;;;;5050941;28;20511;-72
2024/02/19 08:28:52;;;;;;;50.20;32.92;;;;;;;;;;5050892;28;20392;-72
2024/02/19 08:31:57;;;;;;;52.85;33.67;;;;;;;;;;5050216;28;20047;-73
2024/02/19 08:35:02;;;;;;;48.70;31.92;;;;;;;;;;5051131;28;20044;-72
2024/02/19 08:38:06;;;;;;;56.72;37.58;;;;;;;;;;5049694;28;20048;-73
2024/02/19 08:41:10;;;;;;;49.50;34.40;;;;;;;;;;5050612;28;20436;-72
2024/02/19 08:44:15;;;;;;;54.00;36.08;;;;;;;;;;5050849;28;20044;-72
2024/02/19 08:47:19;;;;;;;55.33;34.42;;;;;;;;;;5050904;28;20044;-72
2024/02/19 08:50:24;;;;;;;55.17;33.72;;;;;;;;;;5050445;28;20044;-71
2024/02/19 08:53:28;;;;;;;44.53;31.17;;;;;;;;;;5049550;28;20048;-72
2024/02/19 08:56:32;;;;;;;44.33;30.70;;;;;;;;;;5050729;28;20056;-71
2024/02/19 08:59:37;;;;;;;49.70;31.90;;;;;;;;;;5049914;28;20044;-73
2024/02/19 09:02:42;;;;;;;49.15;31.42;;;;;;;;;;5054015;28;20044;-71
2024/02/19 09:05:47;;;;;;;50.35;31.67;;;;;;;;;;5054594;28;20040;-73
2024/02/19 09:08:51;;;;;;;43.35;27.83;;;;;;;;;;5054187;28;20044;-71
2024/02/19 09:11:55;;;;;;;44.95;29.33;;;;;;;;;;5054065;28;20043;-71
2024/02/19 09:15:00;;;;;;;45.08;28.83;;;;;;;;;;5053360;28;20048;-74
2024/02/19 09:18:04;;;;;;;43.92;29.77;;;;;;;;;;5053408;28;20040;-71
2024/02/19 09:21:08;;;;;;;43.58;28.15;;;;;;;;;;5054019;28;20455;-72
2024/02/19 09:24:13;;;;;;;40.47;27.02;;;;;;;;;;5054248;28;20075;-72
2024/02/19 09:27:17;;;;;;;41.78;26.55;;;;;;;;;;5053441;28;20039;-72
2024/02/19 09:30:21;;;;;;;38.97;25.80;;;;;;;;;;5054206;28;20056;-72
2024/02/19 09:33:26;;;;;;;37.63;24.50;;;14.00;99.90;;;;;;5053148;28;20040;-71
2024/02/19 09:36:31;;;;;;;40.00;27.70;;;;;;;;;;5052957;28;20044;-72
2024/02/19 09:39:38;;;;;;;39.60;27.45;;;14.20;99.90;;;;;;5053775;28;20171;-75
2024/02/19 09:42:47;;;;;;;37.85;24.55;;;;;;;;;;5053619;28;20040;-73
2024/02/19 09:45:51;;;;;;;40.25;27.20;;;;;;;;;;5053818;28;20495;-70
2024/02/19 09:48:57;;;;;;;35.08;24.35;;;;;;;;;;5052897;28;20048;-73
2024/02/19 09:52:02;;;;;;;40.92;26.15;;;;;;;;;;5053878;28;20052;-70
2024/02/19 09:55:08;;;;;;;44.97;26.95;;;14.30;99.90;;;;;;5052773;28;20402;-74
2024/02/19 09:58:12;;;;;;;35.42;24.58;;;;;;;;;;5053785;28;20040;-74
2024/02/19 10:01:20;;;;;;;47.25;29.13;;;;;;;;;;5053813;28;20055;-74
2024/02/19 10:04:26;;;;;;;48.97;26.70;;;;;;;;;;5053298;28;20044;-70
2024/02/19 10:07:31;;;;;;;43.25;25.35;;;13.80;99.90;;;;;;5053287;28;20052;-73
2024/02/19 10:10:38;;;;;;;38.80;26.08;;;;;;;;;;5052794;28;20044;-75
2024/02/19 10:13:42;;;;;;;31.73;22.92;;;;;;;;;;5052607;28;20043;-72
2024/02/19 10:16:55;;;;;;;39.40;25.02;;;14.60;99.90;;;;;;5053394;28;20044;-72
2024/02/19 10:20:01;;;;;;;39.15;26.88;;;;;;;;;;5053060;28;20056;-74
2024/02/19 10:23:06;;;;;;;42.85;27.98;;;;;;;;;;5053723;28;20055;-72
2024/02/19 10:26:10;;;;;;;41.95;26.63;;;;;;;;;;5052865;28;20051;-74
2024/02/19 10:29:14;;;;;;;33.95;24.15;;;;;;;;;;5053063;28;20033;-74
2024/02/19 10:32:18;;;;;;;32.63;22.10;;;;;;;;;;5040809;28;20547;-73
2024/02/19 10:35:23;;;;;;;38.88;24.15;;;;;;;;;;5053324;28;20504;-75
2024/02/19 10:38:27;;;;;;;38.83;22.83;;;;;;;;;;5040724;28;20409;-73
2024/02/19 10:41:35;;;;;;;31.10;23.23;;;14.30;99.90;;;;;;5052585;28;20063;-71
2024/02/19 10:44:41;;;;;;;31.13;21.30;;;;;;;;;;5052833;28;20052;-71
2024/02/19 10:47:45;;;;;;;26.48;16.88;;;;;;;;;;5052905;28;20064;-71
2024/02/19 10:50:50;;;;;;;29.02;20.38;;;15.20;99.90;;;;;;5052482;28;20040;-72
2024/02/19 10:53:59;;;;;;;26.30;18.60;;;15.40;99.90;;;;;;5052689;28;20067;-71
2024/02/19 10:57:07;;;;;;;24.20;16.65;;;;;;;;;;5052237;28;20040;-71
2024/02/19 11:00:12;;;;;;;21.95;15.60;;;15.00;99.90;;;;;;5052129;28;20416;-73
2024/02/19 11:03:17;;;;;;;24.63;15.10;;;;;;;;;;5051168;28;20044;-72
2024/02/19 11:06:23;;;;;;;23.70;14.50;;;15.60;99.90;;;;;;5051668;28;20519;-72
2024/02/19 11:09:32;;;;;;;23.20;14.77;;;15.60;99.90;;;;;;5052136;28;20060;-73
2024/02/19 11:12:37;;;;;;;21.30;15.43;;;;;;;;;;5051150;28;20043;-72
2024/02/19 11:15:42;;;;;;;31.33;18.27;;;;;;;;;;5052022;28;20048;-71
2024/02/19 11:18:48;;;;;;;26.27;18.10;;;;;;;;;;5052029;28;20499;-71
2024/02/19 11:22:11;;;;;;;23.45;16.25;;;14.00;99.90;;;;;;5051196;28;20040;-72
2024/02/19 11:25:17;;;;;;;21.88;14.82;;;;;;;;;;5052064;28;20044;-72
2024/02/19 11:28:21;;;;;;;20.55;14.30;;;;;;;;;;5051957;28;20044;-73
2024/02/19 11:31:28;;;;;;;17.23;12.05;;;;;;;;;;5050852;28;20064;-70
2024/02/19 11:34:32;;;;;;;19.42;13.02;;;16.00;99.90;;;;;;5051028;28;20051;-72
2024/02/19 11:37:37;;;;;;;18.80;14.00;;;;;;;;;;5051739;28;20111;-72
2024/02/19 11:40:42;;;;;;;24.38;14.52;;;;;;;;;;5050787;28;20056;-72
2024/02/19 11:43:46;;;;;;;21.05;13.93;;;;;;;;;;5051335;28;20039;-72
2024/02/19 11:46:51;;;;;;;20.17;13.00;;;;;;;;;;5051237;28;20035;-72
2024/02/19 11:49:56;;;;;;;17.25;11.70;;;;;;;;;;5051393;28;20068;-73
2024/02/19 11:53:03;;;;;;;17.58;10.85;;;;;;;;;;5051158;28;20496;-72
2024/02/19 11:56:07;;;;;;;16.60;10.27;;;;;;;;;;5051684;28;20052;-71
2024/02/19 11:59:12;;;;;;;18.02;11.95;;;;;;;;;;5052319;28;20064;-72
2024/02/19 12:02:18;;;;;;;21.70;13.23;;;14.30;99.90;;;;;;5052612;28;20056;-72
2024/02/19 12:05:24;;;;;;;17.90;13.02;;;;;;;;;;5051189;28;20532;-72
2024/02/19 12:08:30;;;;;;;24.00;13.02;;;16.30;99.90;;;;;;5051565;28;20048;-72
2024/02/19 12:11:44;;;;;;;19.58;12.63;;;15.90;99.90;;;;;;5051430;28;20057;-73
2024/02/19 12:14:48;;;;;;;18.85;11.40;;;;;;;;;;5052239;28;20104;-73
2024/02/19 12:17:53;;;;;;;22.90;12.15;;;;;;;;;;5050588;28;20048;-73
2024/02/19 12:20:58;;;;;;;18.33;10.60;;;;;;;;;;5051356;28;20052;-73
2024/02/19 12:24:04;;;;;;;19.42;11.38;;;16.20;99.90;;;;;;5051252;28;20052;-73
2024/02/19 12:27:09;;;;;;;27.17;10.38;;;;;;;;;;5050652;28;20047;-72
2024/02/19 12:30:13;;;;;;;19.98;10.30;;;;;;;;;;5051525;28;20036;-73
2024/02/19 12:33:18;;;;;;;13.27;8.65;;;;;;;;;;5051993;28;20507;-72
2024/02/19 12:36:22;;;;;;;15.25;8.55;;;;;;;;;;5053586;28;20044;-73
2024/02/19 12:39:26;;;;;;;13.32;8.35;;;;;;;;;;5054513;28;20041;-73
2024/02/19 12:42:31;;;;;;;16.00;8.65;;;;;;;;;;5055426;28;20045;-73
2024/02/19 12:45:36;;;;;;;16.38;9.57;;;;;;;;;;5044063;28;20362;-73
2024/02/19 12:48:41;;;;;;;13.10;9.15;;;16.20;99.90;;;;;;5055217;28;20381;-73
2024/02/19 12:51:48;;;;;;;17.70;10.80;;;;;;;;;;5055197;28;20424;-73
2024/02/19 12:54:53;;;;;;;20.52;9.95;;;16.50;99.90;;;;;;5055537;28;20036;-73
2024/02/19 12:57:58;;;;;;;16.73;9.40;;;;;;;;;;5055860;28;20048;-73
2024/02/19 13:01:02;;;;;;;18.15;10.15;;;;;;;;;;5053767;28;20408;-72
2024/02/19 13:04:06;;;;;;;25.27;11.48;;;;;;;;;;5055145;28;20044;-72
2024/02/19 13:07:11;;;;;;;21.08;10.75;;;;;;;;;;5055691;28;20044;-71
2024/02/19 13:10:15;;;;;;;15.23;10.45;;;;;;;;;;5054634;28;20044;-71
2024/02/19 13:13:20;;;;;;;18.67;9.77;;;;;;;;;;5052632;28;20524;-71
2024/02/19 13:16:26;;;;;;;14.15;8.13;;;;;;;;;;5054190;28;20042;-70
2024/02/19 13:19:30;;;;;;;16.70;8.18;;;;;;;;;;5053755;28;20400;-70
2024/02/19 13:22:35;;;;;;;13.55;7.50;;;;;;;;;;5053871;28;20036;-70
2024/02/19 13:25:39;;;;;;;11.75;6.57;;;;;;;;;;5053875;28;20491;-72
2024/02/19 13:28:44;;;;;;;11.02;6.35;;;;;;;;;;5054365;28;20040;-71
2024/02/19 13:31:48;;;;;;;11.82;6.15;;;;;;;;;;5054626;28;20512;-70
2024/02/19 13:34:52;;;;;;;10.30;6.93;;;;;;;;;;5053982;28;20033;-71
2024/02/19 13:37:57;;;;;;;11.98;7.50;;;;;;;;;;5054038;28;20037;-71
2024/02/19 13:41:03;;;;;;;12.55;7.35;;;;;;;;;;5053889;28;20060;-72
2024/02/19 13:44:07;;;;;;;11.48;6.72;;;;;;;;;;5053820;28;20044;-72
2024/02/19 13:47:12;;;;;;;15.02;7.18;;;;;;;;;;5052815;28;20040;-71
2024/02/19 13:50:15;;;;;;;13.00;7.05;;;;;;;;;;5053988;28;20053;-70
2024/02/19 13:53:20;;;;;;;13.38;6.95;;;;;;;;;;5053825;28;20048;-71
2024/02/19 13:56:27;;;;;;;10.30;6.50;;;;;;;;;;5053880;28;20041;-70
2024/02/19 13:59:32;;;;;;;13.38;6.80;;;;;;;;;;5053606;28;20044;-71
2024/02/19 14:02:36;;;;;;;13.57;6.78;;;;;;;;;;5052427;28;20037;-70
2024/02/19 14:05:41;;;;;;;11.15;5.97;;;;;;;;;;5053709;28;20041;-72
2024/02/19 14:08:45;;;;;;;16.75;6.90;;;;;;;;;;5053191;28;20501;-70
2024/02/19 14:11:50;;;;;;;12.60;5.70;;;;;;;;;;5053951;28;20045;-72
2024/02/19 14:14:55;;;;;;;13.75;6.95;;;;;;;;;;5051928;28;20037;-72
2024/02/19 14:17:59;;;;;;;30.10;19.52;;;;;;;;;;5053607;28;20485;-71
2024/02/19 14:21:08;;;;;;;26.02;13.25;;;;;;;;;;5053005;28;20401;-71
2024/02/19 14:24:15;;;;;;;12.02;6.97;;;;;;;;;;5053129;28;20048;-72
2024/02/19 14:27:20;;;;;;;12.48;6.75;;;;;;;;;;5053089;28;20040;-72
2024/02/19 14:30:24;;;;;;;13.98;7.60;;;;;;;;;;5052579;28;20048;-71
2024/02/19 14:33:28;;;;;;;12.45;6.82;;;;;;;;;;5053246;28;20037;-71
2024/02/19 14:36:33;;;;;;;23.17;8.52;;;16.60;99.90;;;;;;5053256;28;20037;-71
2024/02/19 14:39:38;;;;;;;14.50;7.43;;;;;;;;;;5052635;28;20056;-72
2024/02/19 14:42:48;;;;;;;16.88;7.63;;;17.90;99.90;;;;;;5052601;28;20044;-72
2024/02/19 14:45:53;;;;;;;22.55;9.18;;;;;;;;;;5053211;28;20032;-71
2024/02/19 14:48:57;;;;;;;14.80;8.60;;;;;;;;;;5052656;28;20045;-71
2024/02/19 14:52:02;;;;;;;15.27;8.40;;;;;;;;;;5051767;28;20044;-70
2024/02/19 14:55:09;;;;;;;15.93;9.52;;;16.60;99.90;;;;;;5053151;28;20393;-72
2024/02/19 14:58:14;;;;;;;20.10;10.30;;;;;;;;;;5051727;28;20072;-70
2024/02/19 15:01:18;;;;;;;16.10;7.72;;;;;;;;;;5052492;28;20048;-71
2024/02/19 15:04:22;;;;;;;16.85;7.93;;;;;;;;;;5051513;28;20044;-73
2024/02/19 15:07:26;;;;;;;16.35;8.23;;;;;;;;;;5051491;28;20052;-70
2024/02/19 15:10:32;;;;;;;13.52;8.68;;;;;;;;;;5052139;28;20041;-69
2024/02/19 15:13:36;;;;;;;13.45;6.95;;;;;;;;;;5052056;28;20053;-71
2024/02/19 15:16:40;;;;;;;21.45;6.95;;;;;;;;;;5052569;28;20041;-75
2024/02/19 15:19:46;;;;;;;16.40;7.20;;;;;;;;;;5051275;28;20036;-68
2024/02/19 15:22:50;;;;;;;14.50;6.03;;;;;;;;;;5052025;28;20518;-72
2024/02/19 15:25:56;;;;;;;14.43;5.78;;;;;;;;;;5051202;28;20041;-71
2024/02/19 15:29:00;;;;;;;18.65;7.57;;;;;;;;;;5052091;28;20377;-74
2024/02/19 15:32:05;;;;;;;14.90;5.80;;;;;;;;;;5052572;28;20039;-74
2024/02/19 15:35:09;;;;;;;19.95;6.68;;;;;;;;;;5052045;28;20513;-73
2024/02/19 15:38:14;;;;;;;8.82;5.43;;;;;;;;;;5052298;28;20033;-72
2024/02/19 15:41:21;;;;;;;11.45;5.45;;;;;;;;;;5051953;28;20377;-72
2024/02/19 15:44:26;;;;;;;17.85;6.05;;;;;;;;;;5051932;28;20037;-72
2024/02/19 15:47:30;;;;;;;19.02;6.25;;;;;;;;;;5051793;28;20043;-70
2024/02/19 15:50:34;;;;;;;15.85;7.03;;;;;;;;;;5051762;28;20037;-72
2024/02/19 15:53:39;;;;;;;23.88;7.20;;;;;;;;;;5050576;28;20037;-70
2024/02/19 15:56:43;;;;;;;28.33;7.07;;;;;;;;;;5052566;28;20041;-70
2024/02/19 15:59:48;;;;;;;29.20;10.77;;;;;;;;;;5051826;28;20068;-71
2024/02/19 16:02:53;;;;;;;21.20;8.65;;;;;;;;;;5052397;28;20076;-71
2024/02/19 16:06:00;;;;;;;23.63;8.02;;;;;;;;;;5051814;28;20065;-71
2024/02/19 16:09:05;;;;;;;31.23;8.80;;;15.80;99.90;;;;;;5050654;28;20048;-72
2024/02/19 16:12:09;;;;;;;20.25;10.35;;;;;;;;;;5050829;28;20055;-73
2024/02/19 16:15:16;;;;;;;28.73;12.20;;;;;;;;;;5049213;28;20044;-71
2024/02/19 16:18:20;;;;;;;28.25;9.88;;;;;;;;;;5050286;28;20052;-71
2024/02/19 16:21:25;;;;;;;39.97;8.95;;;;;;;;;;5049568;28;20058;-69
2024/02/19 16:24:33;;;;;;;30.67;9.15;;;;;;;;;;5050646;28;20376;-69
2024/02/19 16:27:38;;;;;;;31.85;9.57;;;;;;;;;;5051113;28;20049;-71
2024/02/19 16:30:43;;;;;;;21.85;8.90;;;;;;;;;;5050285;28;20036;-70
2024/02/19 16:33:47;;;;;;;24.95;9.57;;;;;;;;;;5050848;28;20049;-73
2024/02/19 16:36:53;;;;;;;22.95;10.65;;;;;;;;;;5050713;28;20037;-69
2024/02/19 16:39:58;;;;;;;23.23;10.20;;;;;;;;;;5050860;28;20409;-72
2024/02/19 16:43:02;;;;;;;22.90;9.75;;;;;;;;;;5050968;28;20048;-71
2024/02/19 16:46:07;;;;;;;19.48;10.40;;;;;;;;;;5051114;28;20421;-72
2024/02/19 16:49:11;;;;;;;22.55;12.38;;;;;;;;;;5050688;28;20048;-71
2024/02/19 16:52:16;;;;;;;31.55;14.07;;;;;;;;;;5051055;28;20052;-71
2024/02/19 16:55:20;;;;;;;31.45;16.50;;;;;;;;;;5049918;28;20397;-72
2024/02/19 16:58:25;;;;;;;38.70;17.02;;;;;;;;;;5049620;28;20047;-71
2024/02/19 17:01:30;;;;;;;34.72;17.67;;;;;;;;;;5049437;28;20056;-71
2024/02/19 17:04:34;;;;;;;35.50;17.08;;;;;;;;;;5050688;28;20040;-75
2024/02/19 17:07:38;;;;;;;31.25;16.80;;;;;;;;;;5050604;28;20043;-74
2024/02/19 17:10:43;;;;;;;28.60;16.55;;;;;;;;;;5038220;28;20044;-73